Time;durP1;ratioP1;P1;durP2;ratioP2;P2;SDS_P1;SDS_P2;PMS_P1;PMS_P2;Temp;Humidity;BMP_temperature;BMP_pressure;BME280_temperature;BME280_humidity;BME280_pressure;Samples;Min_cycle;Max_cycle;Signal;HPM_P1;HPM_P2
2022/04/26 03:37:06;;;;;;;5.90;5.10;;;13.40;99.90;;;;;;5058897;28;20448;-79
2022/04/26 03:39:34;;;;;;;6.70;4.93;;;13.50;99.90;;;;;;5058945;28;20470;-78
2022/04/26 03:42:03;;;;;;;7.67;4.70;;;13.40;99.90;;;;;;5057629;28;20502;-78
2022/04/26 03:44:31;;;;;;;5.20;4.70;;;13.40;99.90;;;;;;5060677;28;20474;-79
2022/04/26 03:46:59;;;;;;;5.50;4.73;;;13.40;99.90;;;;;;5061143;28;20484;-78
2022/04/26 03:49:29;;;;;;;5.47;4.97;;;13.50;99.90;;;;;;5070819;28;20483;-79
2022/04/26 03:51:58;;;;;;;7.20;5.57;;;13.40;99.90;;;;;;5065033;28;20485;-80
2022/04/26 03:54:26;;;;;;;4.90;4.20;;;13.30;99.90;;;;;;5060249;28;20467;-79
2022/04/26 03:56:54;;;;;;;4.97;4.23;;;13.40;99.90;;;;;;5059274;28;20503;-79
2022/04/26 03:59:22;;;;;;;4.90;4.50;;;13.40;99.90;;;;;;5060160;28;20490;-78
2022/04/26 04:01:50;;;;;;;4.60;4.10;;;13.40;99.90;;;;;;5056122;28;20445;-79
2022/04/26 04:04:19;;;;;;;5.03;4.63;;;13.40;99.90;;;;;;5064002;28;20826;-79
2022/04/26 04:06:49;;;;;;;4.97;4.47;;;13.40;99.90;;;;;;5060320;28;20479;-76
2022/04/26 04:09:17;;;;;;;6.70;5.30;;;13.30;99.90;;;;;;5057431;28;20471;-78
2022/04/26 04:11:45;;;;;;;5.80;5.20;;;13.40;99.90;;;;;;5061166;28;20448;-78
2022/04/26 04:14:14;;;;;;;4.70;4.00;;;13.40;99.90;;;;;;5061660;28;20462;-77
2022/04/26 04:16:42;;;;;;;5.30;4.60;;;13.40;99.90;;;;;;5061437;28;20490;-78
2022/04/26 04:19:20;;;;;;;5.93;5.27;;;13.40;99.90;;;;;;5069711;28;20466;-75
2022/04/26 04:21:51;;;;;;;6.53;5.43;;;13.50;99.90;;;;;;5065166;28;20458;-78
2022/04/26 04:24:20;;;;;;;4.73;4.27;;;13.40;99.90;;;;;;5062860;28;20496;-78
2022/04/26 04:26:48;;;;;;;6.53;5.77;;;13.40;99.90;;;;;;5064514;28;20532;-77
2022/04/26 04:29:17;;;;;;;7.50;6.23;;;13.40;99.90;;;;;;5064645;28;20476;-77
2022/04/26 04:31:45;;;;;;;4.60;4.20;;;13.40;99.90;;;;;;5056655;28;20531;-77
2022/04/26 04:34:14;;;;;;;5.47;4.97;;;13.40;99.90;;;;;;5060012;28;20518;-77
2022/04/26 04:36:42;;;;;;;5.27;4.77;;;13.30;99.90;;;;;;5057898;28;20454;-75
2022/04/26 04:39:13;;;;;;;8.40;5.20;;;13.40;99.90;;;;;;5063085;28;20474;-76
2022/04/26 04:41:41;;;;;;;6.63;5.57;;;13.40;99.90;;;;;;5056519;28;20444;-78
2022/04/26 04:44:09;;;;;;;5.03;4.33;;;13.40;99.90;;;;;;5055922;28;20489;-77
2022/04/26 04:46:37;;;;;;;4.97;4.47;;;13.40;99.90;;;;;;5064956;28;20992;-78
2022/04/26 04:49:05;;;;;;;5.80;5.00;;;13.40;99.90;;;;;;5065636;28;20557;-77
2022/04/26 04:51:34;;;;;;;6.40;5.40;;;13.40;98.00;;;;;;5062305;28;20467;-77
2022/04/26 04:54:02;;;;;;;4.60;3.73;;;13.40;90.00;;;;;;5064836;28;20563;-76
2022/04/26 04:56:32;;;;;;;5.10;4.53;;;13.40;78.20;;;;;;5067671;28;20454;-77
2022/04/26 04:59:00;;;;;;;4.97;4.47;;;13.30;52.30;;;;;;5062292;28;20483;-77
2022/04/26 05:01:28;;;;;;;4.37;3.60;;;13.30;43.20;;;;;;5062225;28;20470;-77
2022/04/26 05:03:57;;;;;;;3.67;3.37;;;13.30;88.40;;;;;;5066676;28;20492;-77
2022/04/26 05:06:25;;;;;;;5.40;4.90;;;13.40;52.40;;;;;;5070470;28;20486;-77
2022/04/26 05:08:53;;;;;;;5.33;3.80;;;13.40;25.20;;;;;;5067099;28;20481;-77
2022/04/26 05:11:21;;;;;;;4.13;3.73;;;13.40;1.00;;;;;;5067535;28;20515;-77
2022/04/26 05:13:56;;;;;;;2.63;2.47;;;13.30;1.00;;;;;;5064837;28;20446;-77
2022/04/26 05:16:24;;;;;;;4.37;3.97;;;13.40;1.00;;;;;;5061957;28;20822;-77
2022/04/26 05:18:52;;;;;;;4.13;3.83;;;13.40;1.00;;;;;;5059376;28;20489;-77
2022/04/26 05:21:21;;;;;;;5.80;4.53;;;13.30;1.00;;;;;;5063777;28;21283;-76
2022/04/26 05:26:33;;;;;;;5.47;4.80;;;13.00;99.90;;;;;;5041035;28;21010;-77
2022/04/26 05:29:05;;;;;;;5.40;4.77;;;12.80;99.90;;;;;;5067349;28;20482;-76
2022/04/26 05:31:33;;;;;;;4.60;4.13;;;12.70;99.90;;;;;;5067707;28;21253;-77
2022/04/26 05:34:02;;;;;;;5.63;4.60;;;12.60;99.90;;;;;;5067629;28;20512;-77
2022/04/26 05:36:33;;;;;;;5.47;4.93;;;12.70;99.90;;;;;;5067459;28;20476;-75
2022/04/26 05:39:01;;;;;;;4.13;3.60;;;12.80;99.90;;;;;;5067354;28;20474;-75
2022/04/26 05:41:30;;;;;;;4.53;3.70;;;12.70;99.90;;;;;;5067847;28;20446;-74
2022/04/26 05:43:58;;;;;;;6.67;3.60;;;12.50;99.90;;;;;;5067826;28;20455;-77
2022/04/26 05:46:27;;;;;;;4.13;3.83;;;12.40;99.90;;;;;;5061141;28;20664;-76
2022/04/26 05:48:56;;;;;;;3.20;2.90;;;12.40;99.90;;;;;;5068918;28;20757;-77
2022/04/26 05:51:24;;;;;;;4.27;3.47;;;12.60;99.90;;;;;;5067115;28;20454;-76
2022/04/26 05:53:52;;;;;;;8.03;5.10;;;12.70;99.90;;;;;;5078113;28;20461;-76
2022/04/26 05:56:20;;;;;;;5.20;4.20;;;12.80;99.90;;;;;;5064340;28;20443;-77
2022/04/26 05:58:48;;;;;;;5.03;4.30;;;12.90;22.80;;;;;;5065292;28;20475;-76
2022/04/26 06:01:17;;;;;;;5.30;4.60;;;12.70;34.20;;;;;;5068033;28;20632;-77
2022/04/26 06:03:46;;;;;;;3.90;3.57;;;12.50;99.90;;;;;;5067489;28;20450;-77
2022/04/26 06:06:15;;;;;;;4.17;3.87;;;12.70;99.90;;;;;;5066377;28;20455;-77
2022/04/26 06:08:43;;;;;;;4.87;4.10;;;12.70;31.80;;;;;;5072431;28;20482;-77
2022/04/26 06:11:16;;;;;;;5.10;4.70;;;12.70;22.90;;;;;;5058068;28;20534;-77
2022/04/26 06:13:44;;;;;;;5.03;4.50;;;12.40;99.90;;;;;;5066539;28;20443;-77
2022/04/26 06:16:14;;;;;;;8.67;6.13;;;12.40;99.90;;;;;;5063285;28;20483;-76
2022/04/26 06:18:43;;;;;;;5.93;4.47;;;12.60;99.90;;;;;;5063750;28;20463;-76
2022/04/26 06:21:13;;;;;;;6.13;4.80;;;12.70;99.90;;;;;;5066579;28;21309;-77
2022/04/26 06:23:41;;;;;;;3.90;3.50;;;12.80;99.90;;;;;;5072605;28;20451;-76
2022/04/26 06:26:09;;;;;;;3.97;3.60;;;12.80;99.90;;;;;;5066172;28;20459;-77
2022/04/26 06:28:37;;;;;;;3.87;3.57;;;12.80;99.90;;;;;;5063737;28;20489;-77
2022/04/26 06:31:06;;;;;;;4.20;3.80;;;12.90;99.90;;;;;;5069711;28;20444;-77
2022/04/26 06:33:34;;;;;;;4.77;3.50;;;13.10;40.90;;;;;;5055369;28;21031;-77
2022/04/26 06:36:03;;;;;;;4.67;4.00;;;13.00;1.00;;;;;;5063120;28;20466;-78
2022/04/26 06:38:33;;;;;;;4.43;4.03;;;13.00;14.40;;;;;;5059832;28;20534;-77
2022/04/26 06:41:01;;;;;;;3.73;3.40;;;13.00;22.90;;;;;;5058017;28;20459;-77
2022/04/26 06:43:32;;;;;;;5.77;3.73;;;13.10;1.00;;;;;;5060143;28;20452;-78
2022/04/26 06:46:01;;;;;;;4.57;3.73;;;13.20;1.00;;;;;;5055078;28;20465;-76
2022/04/26 06:48:30;;;;;;;6.17;3.90;;;13.10;1.00;;;;;;5055616;28;20526;-77
2022/04/26 06:50:58;;;;;;;4.30;3.90;;;12.90;1.00;;;;;;5054028;28;20463;-77
2022/04/26 06:53:26;;;;;;;4.03;3.63;;;13.00;61.90;;;;;;5055885;28;20464;-77
2022/04/26 06:55:55;;;;;;;4.67;3.97;;;13.10;65.20;;;;;;5053791;28;20464;-77
2022/04/26 06:58:24;;;;;;;4.30;3.13;;;12.90;1.00;;;;;;5057871;28;21021;-78
2022/04/26 07:00:52;;;;;;;4.60;4.20;;;12.80;29.60;;;;;;5054633;28;20451;-77
2022/04/26 07:03:20;;;;;;;3.30;2.77;;;12.70;58.40;;;;;;5056733;28;20800;-78
2022/04/26 07:05:51;;;;;;;3.20;3.00;;;12.90;79.10;;;;;;5056572;28;20504;-77
2022/04/26 07:08:19;;;;;;;2.63;2.43;;;13.20;99.90;;;;;;5049345;28;20501;-76
2022/04/26 07:10:47;;;;;;;4.30;3.27;;;13.20;20.00;;;;;;5052612;28;20461;-76
2022/04/26 07:13:20;;;;;;;3.50;3.20;;;13.30;1.00;;;;;;5053405;28;20490;-77
2022/04/26 07:15:48;;;;;;;3.40;3.10;;;13.50;1.00;;;;;;5054812;28;20459;-77
2022/04/26 07:18:16;;;;;;;5.87;3.87;;;13.60;1.00;;;;;;5056366;28;20479;-77
2022/04/26 07:20:45;;;;;;;3.23;2.97;;;13.80;1.00;;;;;;5057049;28;20456;-77
2022/04/26 07:23:13;;;;;;;5.00;4.60;;;13.90;1.00;;;;;;5055049;28;20465;-77
2022/04/26 07:25:42;;;;;;;3.43;3.10;;;13.60;1.00;;;;;;5057728;28;20512;-77
2022/04/26 07:28:10;;;;;;;3.80;3.03;;;14.00;1.00;;;;;;5054005;28;20519;-77
2022/04/26 07:30:41;;;;;;;3.30;2.83;;;14.10;1.00;;;;;;5057459;28;20469;-77
2022/04/26 07:35:55;;;;;;;3.30;3.00;;;14.10;1.00;;;;;;5056704;28;20465;-77
2022/04/26 07:38:23;;;;;;;3.77;3.47;;;14.20;1.00;;;;;;5055828;28;20479;-77
2022/04/26 07:40:52;;;;;;;3.80;3.53;;;14.20;1.00;;;;;;5056184;28;20455;-76
2022/04/26 07:43:21;;;;;;;4.27;3.30;;;14.20;1.00;;;;;;5062117;28;20451;-77
2022/04/26 07:45:50;;;;;;;3.80;3.40;;;14.20;1.00;;;;;;5059681;28;20836;-78
2022/04/26 07:48:20;;;;;;;4.00;3.53;;;14.20;1.00;;;;;;5051533;28;20489;-78
2022/04/26 07:50:49;;;;;;;4.07;3.10;;;14.10;1.00;;;;;;5054202;28;20494;-77
2022/04/26 07:53:18;;;;;;;3.50;3.10;;;14.20;1.00;;;;;;5053859;28;20452;-77
2022/04/26 07:55:47;;;;;;;4.33;3.70;;;14.20;1.00;;;;;;5059920;28;20465;-76
2022/04/26 07:58:15;;;;;;;4.20;3.80;;;14.10;1.00;;;;;;5053614;28;20543;-77
2022/04/26 08:00:43;;;;;;;3.97;3.33;;;14.10;99.90;;;;;;5058450;28;20479;-77
2022/04/26 08:03:13;;;;;;;4.73;4.33;;;14.00;99.90;;;;;;5057036;28;20448;-77
2022/04/26 08:05:41;;;;;;;4.70;3.17;;;14.00;99.90;;;;;;5056478;28;20490;-77
2022/04/26 08:08:09;;;;;;;3.77;3.47;;;14.00;99.90;;;;;;5059606;28;20499;-77
2022/04/26 08:10:38;;;;;;;4.60;4.20;;;14.00;99.90;;;;;;5060365;28;20467;-76
2022/04/26 08:13:06;;;;;;;4.40;3.70;;;14.00;99.90;;;;;;5060400;28;20561;-75
2022/04/26 08:15:34;;;;;;;5.27;3.60;;;14.00;99.90;;;;;;5058912;28;20459;-77
2022/04/26 08:18:03;;;;;;;4.00;3.60;;;14.00;99.90;;;;;;5059771;28;21267;-77
2022/04/26 08:20:32;;;;;;;4.30;3.90;;;14.00;99.90;;;;;;5060215;28;20529;-77
2022/04/26 08:23:02;;;;;;;4.03;3.43;;;14.00;99.90;;;;;;5062186;28;20465;-77
2022/04/26 08:28:21;;;;;;;4.03;3.70;;;14.00;99.90;;;;;;5021099;28;20559;-77
2022/04/26 08:30:49;;;;;;;3.87;3.47;;;14.00;99.90;;;;;;5059234;28;20461;-76
2022/04/26 08:33:18;;;;;;;4.07;3.70;;;14.10;99.90;;;;;;5056693;28;20552;-76
2022/04/26 08:35:48;;;;;;;6.27;4.60;;;14.20;99.90;;;;;;5058498;28;20456;-77
2022/04/26 08:38:31;;;;;;;3.23;3.03;;;14.30;99.90;;;;;;5058998;28;20472;-77
2022/04/26 08:40:59;;;;;;;4.00;2.47;;;14.30;99.90;;;;;;5063766;28;20460;-77
2022/04/26 08:43:33;;;;;;;3.53;3.13;;;14.40;99.90;;;;;;5062250;28;20457;-76
2022/04/26 08:46:03;;;;;;;3.80;3.40;;;14.40;99.90;;;;;;5060330;28;20926;-77
2022/04/26 08:51:19;;;;;;;3.13;2.90;;;14.20;99.90;;;;;;5058756;28;20591;-76
2022/04/26 08:53:47;;;;;;;3.37;3.07;;;14.20;99.90;;;;;;5059283;28;20475;-77
2022/04/26 08:56:16;;;;;;;3.20;2.30;;;14.20;99.90;;;;;;5062618;28;20475;-77
2022/04/26 08:58:44;;;;;;;4.20;3.50;;;14.20;99.90;;;;;;5061153;28;20465;-77
2022/04/26 09:01:15;;;;;;;4.50;3.03;;;14.20;99.90;;;;;;5062285;28;20457;-77
2022/04/26 09:03:58;;;;;;;3.23;2.93;;;14.20;99.90;;;;;;5060750;28;20464;-77
2022/04/26 09:06:40;;;;;;;6.67;3.50;;;14.20;99.90;;;;;;5057295;28;20468;-77
2022/04/26 09:09:14;;;;;;;3.37;3.07;;;14.30;99.90;;;;;;5060627;28;20601;-77
2022/04/26 09:11:43;;;;;;;3.43;2.93;;;14.30;99.90;;;;;;5058265;28;20847;-77
2022/04/26 09:14:28;;;;;;;4.80;3.03;;;14.30;99.90;;;;;;5060107;28;20461;-76
2022/04/26 09:17:04;;;;;;;3.50;3.20;;;14.30;99.90;;;;;;5062053;28;20904;-77
2022/04/26 09:19:44;;;;;;;7.00;4.53;;;14.40;99.90;;;;;;5060607;28;20477;-77
2022/04/26 09:22:19;;;;;;;2.97;2.47;;;14.50;99.90;;;;;;5062667;28;20445;-77
2022/04/26 09:25:02;;;;;;;4.83;2.90;;;14.60;99.90;;;;;;5059700;28;20456;-77
2022/04/26 09:27:31;;;;;;;3.93;3.00;;;14.70;99.90;;;;;;5062489;28;20469;-77
2022/04/26 09:29:59;;;;;;;6.10;3.57;;;14.70;99.90;;;;;;5060778;28;20488;-77
2022/04/26 09:32:43;;;;;;;3.57;3.27;;;14.70;99.90;;;;;;5058199;28;20461;-76
2022/04/26 09:35:19;;;;;;;3.77;3.47;;;14.60;99.90;;;;;;5060062;28;20806;-76
2022/04/26 09:37:48;;;;;;;5.97;3.77;;;14.70;99.90;;;;;;5062768;28;20466;-76
2022/04/26 09:40:28;;;;;;;3.50;3.13;;;14.70;99.90;;;;;;5059770;28;20453;-77
2022/04/26 09:42:57;;;;;;;3.60;3.30;;;14.80;99.90;;;;;;5059030;28;20911;-76
2022/04/26 09:45:26;;;;;;;3.70;3.40;;;14.90;99.90;;;;;;5058665;28;20458;-77
2022/04/26 09:47:58;;;;;;;2.97;2.77;;;14.90;99.90;;;;;;5062471;28;21175;-77
2022/04/26 09:50:27;;;;;;;7.30;3.80;;;15.00;99.90;;;;;;5059976;28;20543;-77
2022/04/26 09:52:57;;;;;;;3.43;3.13;;;15.10;99.90;;;;;;5062577;28;20467;-77
2022/04/26 09:55:26;;;;;;;3.70;3.40;;;15.00;99.90;;;;;;5059061;28;20481;-77
2022/04/26 09:57:55;;;;;;;3.00;2.70;;;15.10;99.90;;;;;;5063303;28;20454;-76
2022/04/26 10:00:24;;;;;;;3.43;3.13;;;15.20;99.90;;;;;;5061351;28;20477;-77
2022/04/26 10:02:56;;;;;;;3.00;2.70;;;15.10;99.90;;;;;;5062641;28;20538;-77
2022/04/26 10:05:32;;;;;;;4.13;2.70;;;15.10;99.90;;;;;;5061219;28;20541;-77
2022/04/26 10:08:02;;;;;;;2.80;2.60;;;15.00;99.90;;;;;;5060605;28;20467;-77
2022/04/26 10:10:31;;;;;;;3.13;2.40;;;14.80;99.90;;;;;;5063858;28;20879;-77
2022/04/26 10:15:46;;;;;;;2.80;2.37;;;14.90;99.90;;;;;;5061356;28;20543;-76
2022/04/26 10:18:30;;;;;;;5.80;3.20;;;15.00;99.90;;;;;;5061928;28;20478;-76
2022/04/26 10:20:59;;;;;;;3.53;2.87;;;15.00;99.90;;;;;;5059052;28;20460;-77
2022/04/26 10:23:29;;;;;;;4.20;3.40;;;15.00;99.90;;;;;;5060639;28;20480;-75
2022/04/26 10:26:25;;;;;;;4.60;2.73;;;15.00;99.90;;;;;;5060114;28;20496;-77
2022/04/26 10:28:54;;;;;;;3.53;2.97;;;15.10;99.90;;;;;;5061500;28;20542;-77
2022/04/26 10:31:36;;;;;;;6.47;3.37;;;15.10;99.90;;;;;;5058007;28;21735;-77
2022/04/26 10:34:18;;;;;;;2.67;2.50;;;15.10;99.90;;;;;;5066019;28;20516;-76
2022/04/26 10:36:47;;;;;;;5.13;2.60;;;15.30;99.90;;;;;;5065288;28;21240;-77
2022/04/26 10:39:33;;;;;;;2.87;2.67;;;15.40;99.90;;;;;;5060920;28;20516;-77
2022/04/26 10:42:07;;;;;;;2.40;2.20;;;15.50;99.90;;;;;;5065359;28;20458;-75
2022/04/26 10:44:42;;;;;;;3.60;2.03;;;15.40;99.90;;;;;;5064465;28;20454;-78
2022/04/26 10:47:25;;;;;;;2.97;2.43;;;15.40;99.90;;;;;;5062194;28;20446;-77
2022/04/26 10:49:54;;;;;;;2.53;2.10;;;15.40;99.90;;;;;;5061405;28;20494;-77
2022/04/26 10:52:47;;;;;;;2.33;2.13;;;15.40;99.90;;;;;;5057295;28;20946;-77
2022/04/26 10:55:18;;;;;;;4.40;2.23;;;15.40;99.90;;;;;;5058042;28;20455;-78
2022/04/26 10:57:50;;;;;;;3.70;2.33;;;15.50;99.90;;;;;;5060310;28;20913;-77
2022/04/26 11:00:21;;;;;;;2.50;2.30;;;15.60;99.90;;;;;;5058768;28;20442;-77
2022/04/26 11:02:51;;;;;;;2.43;1.30;;;15.60;99.90;;;;;;5056671;28;20514;-79
2022/04/26 11:05:25;;;;;;;2.00;1.90;;;15.70;98.90;;;;;;5059805;28;20468;-79
2022/04/26 11:07:55;;;;;;;2.90;1.53;;;15.90;99.90;;;;;;5061538;28;20466;-78
2022/04/26 11:10:26;;;;;;;1.40;1.30;;;16.10;99.90;;;;;;5061543;28;20624;-78
2022/04/26 11:12:56;;;;;;;1.43;1.33;;;16.20;99.90;;;;;;5067768;28;20457;-79
2022/04/26 11:15:25;;;;;;;1.93;1.80;;;16.30;99.90;;;;;;5062583;28;20539;-79
2022/04/26 11:17:55;;;;;;;3.60;1.97;;;16.30;99.90;;;;;;5070707;28;20449;-79
2022/04/26 11:20:25;;;;;;;2.20;1.80;;;16.30;99.60;;;;;;5061902;28;20538;-78
2022/04/26 11:22:55;;;;;;;1.97;1.67;;;16.40;99.90;;;;;;5060813;28;20470;-79
2022/04/26 11:28:17;;;;;;;1.40;1.30;;;16.40;99.20;;;;;;5057996;28;20492;-79
2022/04/26 11:30:47;;;;;;;1.77;1.67;;;16.40;94.50;;;;;;5060177;28;20499;-78
2022/04/26 11:33:18;;;;;;;2.10;1.50;;;16.20;87.00;;;;;;5061914;28;20534;-75
2022/04/26 11:35:53;;;;;;;3.13;1.83;;;16.00;80.00;;;;;;5057826;28;20461;-77
2022/04/26 11:38:23;;;;;;;2.00;1.77;;;15.90;82.50;;;;;;5059635;28;20495;-76
2022/04/26 11:40:55;;;;;;;4.80;2.00;;;16.00;82.50;;;;;;5055635;28;20878;-77
2022/04/26 11:43:24;;;;;;;2.30;1.40;;;15.90;79.50;;;;;;5053555;28;20467;-77
2022/04/26 11:45:54;;;;;;;2.40;1.80;;;15.90;77.60;;;;;;5055137;28;20457;-77
2022/04/26 11:48:24;;;;;;;2.73;2.30;;;16.00;91.10;;;;;;5054978;28;20487;-76
2022/04/26 11:50:53;;;;;;;4.63;3.10;;;16.00;99.00;;;;;;5056260;28;20475;-77
2022/04/26 11:53:24;;;;;;;2.90;2.70;;;16.10;99.90;;;;;;5053747;28;20526;-75
2022/04/26 11:55:56;;;;;;;4.57;3.57;;;16.10;99.90;;;;;;5054738;28;20880;-77
2022/04/26 11:58:33;;;;;;;3.20;2.63;;;16.00;99.90;;;;;;5053387;28;20483;-75
2022/04/26 12:01:03;;;;;;;3.50;3.20;;;16.00;99.90;;;;;;5056107;28;20457;-76
2022/04/26 12:03:33;;;;;;;4.20;3.40;;;16.00;99.90;;;;;;5053748;28;20555;-77
2022/04/26 12:06:04;;;;;;;4.07;3.33;;;16.00;99.90;;;;;;5056992;28;20473;-77
2022/04/26 12:08:37;;;;;;;3.10;2.90;;;15.90;99.90;;;;;;5063800;28;20482;-77
2022/04/26 12:11:20;;;;;;;3.47;3.27;;;15.90;99.90;;;;;;5061305;28;20481;-76
2022/04/26 12:14:02;;;;;;;3.17;2.73;;;16.00;99.90;;;;;;5057448;28;20454;-76
2022/04/26 12:16:31;;;;;;;3.17;2.70;;;16.00;99.90;;;;;;5054426;28;20472;-76
2022/04/26 12:19:01;;;;;;;3.80;3.00;;;15.90;99.90;;;;;;5054903;28;20467;-77
2022/04/26 12:21:43;;;;;;;2.77;2.57;;;15.80;99.90;;;;;;5052361;28;20513;-77
2022/04/26 12:24:12;;;;;;;5.80;3.20;;;15.70;99.90;;;;;;5055376;28;20455;-76
2022/04/26 12:26:53;;;;;;;3.43;2.80;;;15.50;99.90;;;;;;5055765;28;20454;-77
2022/04/26 12:29:21;;;;;;;3.97;2.67;;;15.40;99.90;;;;;;5056207;28;20485;-76
2022/04/26 12:31:50;;;;;;;3.53;3.23;;;15.30;99.90;;;;;;5059036;28;20478;-76
2022/04/26 12:34:20;;;;;;;4.97;3.40;;;15.10;99.90;;;;;;5055482;28;21247;-76
2022/04/26 12:36:53;;;;;;;3.63;3.33;;;15.00;99.90;;;;;;5059576;28;20515;-76
2022/04/26 12:39:23;;;;;;;6.80;3.00;;;14.80;99.90;;;;;;5055738;28;20480;-76
2022/04/26 12:41:55;;;;;;;8.33;2.93;;;14.80;99.90;;;;;;5056153;28;20544;-77
2022/04/26 12:44:24;;;;;;;3.57;3.20;;;14.70;99.90;;;;;;5054438;28;20446;-75
2022/04/26 12:52:53;;;;;;;7.13;2.47;;;14.40;99.90;;;;;;5058977;28;20454;-76
2022/04/26 12:55:30;;;;;;;2.27;2.07;;;14.40;99.90;;;;;;5056633;28;20456;-78
2022/04/26 12:58:01;;;;;;;2.60;2.07;;;14.30;99.90;;;;;;5060114;28;20838;-77
2022/04/26 13:00:31;;;;;;;3.60;2.13;;;14.30;99.90;;;;;;5056754;28;21023;-77
2022/04/26 13:03:03;;;;;;;3.30;2.10;;;14.40;99.90;;;;;;5059073;28;20465;-78
2022/04/26 13:05:39;;;;;;;2.43;2.23;;;14.40;99.90;;;;;;5092819;27;20900;-78
2022/04/26 13:08:08;;;;;;;2.90;2.30;;;14.40;99.90;;;;;;5062092;28;20468;-76
2022/04/26 13:10:36;;;;;;;2.93;2.63;;;14.30;99.90;;;;;;5064676;28;20879;-77
2022/04/26 13:13:06;;;;;;;3.90;2.70;;;14.30;99.90;;;;;;5062287;28;20536;-77
2022/04/26 13:15:35;;;;;;;3.40;2.97;;;14.40;99.90;;;;;;5057689;28;20532;-77
2022/04/26 13:18:03;;;;;;;3.50;3.27;;;14.50;99.90;;;;;;5066858;28;20464;-77
2022/04/26 13:20:32;;;;;;;3.17;2.90;;;14.60;99.90;;;;;;5069310;28;20448;-77
2022/04/26 13:23:01;;;;;;;4.10;3.03;;;14.60;99.90;;;;;;5068590;28;20516;-77
2022/04/26 13:25:29;;;;;;;3.13;2.87;;;14.70;99.90;;;;;;5076643;28;20464;-77
2022/04/26 13:27:59;;;;;;;3.60;2.30;;;14.70;99.90;;;;;;5069845;28;20472;-77
2022/04/26 13:30:28;;;;;;;3.33;3.03;;;14.80;99.90;;;;;;5068916;28;20457;-77
2022/04/26 13:32:57;;;;;;;2.47;2.27;;;14.90;99.90;;;;;;5069181;28;20447;-77
2022/04/26 13:35:26;;;;;;;1.60;1.50;;;14.90;99.90;;;;;;5066274;28;20986;-77
2022/04/26 13:37:55;;;;;;;2.13;1.70;;;15.00;99.90;;;;;;5055962;28;20508;-77
2022/04/26 13:40:23;;;;;;;1.50;1.40;;;15.00;99.90;;;;;;5061841;28;20448;-77
2022/04/26 13:42:57;;;;;;;2.10;1.93;;;15.00;99.90;;;;;;5054369;28;20454;-77
2022/04/26 13:45:26;;;;;;;2.53;1.70;;;15.00;99.90;;;;;;5055549;28;20536;-77
2022/04/26 13:47:55;;;;;;;1.63;1.53;;;15.10;99.90;;;;;;5059904;28;20456;-77
2022/04/26 13:50:24;;;;;;;2.00;1.80;;;15.10;99.90;;;;;;5060526;28;20962;-77
2022/04/26 13:52:52;;;;;;;1.50;1.40;;;15.10;99.90;;;;;;5059088;28;20957;-78
2022/04/26 13:55:21;;;;;;;1.57;1.47;;;15.00;99.90;;;;;;5059793;28;20453;-77
2022/04/26 13:57:49;;;;;;;1.30;1.20;;;15.00;99.90;;;;;;5059930;28;20544;-77
2022/04/26 14:00:18;;;;;;;2.03;1.30;;;15.00;99.90;;;;;;5059025;28;20496;-77
2022/04/26 14:02:46;;;;;;;2.13;1.93;;;15.00;99.90;;;;;;5060720;28;20447;-77
2022/04/26 14:05:17;;;;;;;2.00;1.30;;;15.00;99.90;;;;;;5059900;28;20903;-77
2022/04/26 14:07:46;;;;;;;1.53;1.43;;;14.90;99.90;;;;;;5057013;28;20482;-78
2022/04/26 14:10:15;;;;;;;1.83;1.60;;;14.80;99.90;;;;;;5060182;28;21015;-77
2022/04/26 14:12:44;;;;;;;1.87;1.77;;;14.90;99.90;;;;;;5059395;28;20481;-77
2022/04/26 14:23:35;;;;;;;1.17;1.07;;;15.00;99.90;;;;;;5058759;28;20607;-78
2022/04/26 14:26:05;;;;;;;1.10;1.03;;;15.00;99.90;;;;;;5053382;28;20464;-76
2022/04/26 14:28:33;;;;;;;1.20;1.10;;;15.00;99.90;;;;;;5057228;28;20480;-77
2022/04/26 14:31:01;;;;;;;1.20;1.10;;;15.00;99.90;;;;;;5061030;28;21220;-76
2022/04/26 14:33:29;;;;;;;1.27;1.17;;;15.10;99.90;;;;;;5056523;28;20460;-76
2022/04/26 14:35:59;;;;;;;1.40;1.30;;;14.80;99.90;;;;;;5051406;28;20594;-78
2022/04/26 14:38:27;;;;;;;1.20;1.10;;;14.70;99.90;;;;;;5058254;28;20483;-77
2022/04/26 14:40:56;;;;;;;1.20;1.10;;;14.70;99.90;;;;;;5061235;28;20532;-77
2022/04/26 14:43:24;;;;;;;1.47;1.10;;;14.90;99.90;;;;;;5052922;28;20460;-77
2022/04/26 14:45:55;;;;;;;1.40;1.20;;;15.10;99.90;;;;;;5061575;28;20450;-78
2022/04/26 14:48:23;;;;;;;1.00;0.90;;;15.20;99.90;;;;;;5062411;28;20486;-77
2022/04/26 14:50:56;;;;;;;1.43;1.33;;;15.00;99.90;;;;;;5058322;28;20467;-78
2022/04/26 14:53:25;;;;;;;1.40;1.30;;;15.10;99.90;;;;;;5061320;28;20485;-76
2022/04/26 14:56:10;;;;;;;1.40;1.30;;;15.20;99.90;;;;;;5062528;28;20484;-77
2022/04/26 14:59:02;;;;;;;1.90;1.43;;;15.30;99.90;;;;;;5066456;28;20510;-78
2022/04/26 15:01:36;;;;;;;1.67;1.43;;;15.40;99.90;;;;;;5064654;28;20461;-78
2022/04/26 15:04:05;;;;;;;1.40;1.30;;;15.50;99.90;;;;;;5062488;28;20550;-78
2022/04/26 15:06:33;;;;;;;2.23;1.53;;;15.50;99.90;;;;;;5058973;28;20441;-78
2022/04/26 15:16:37;;;;;;;2.23;1.60;;;15.60;99.90;;;;;;5077436;28;20466;-77
2022/04/26 15:17:22;;;;;;;1.90;1.60;;;15.60;99.90;;;;;;5061476;28;20454;-81
2022/04/26 15:19:51;;;;;;;1.70;1.60;;;15.60;99.90;;;;;;5060933;28;20463;-81
2022/04/26 15:22:20;;;;;;;1.33;1.23;;;15.70;99.90;;;;;;5064001;28;20458;-81
2022/04/26 15:24:50;;;;;;;1.27;1.17;;;15.80;99.90;;;;;;5064144;28;20458;-82
2022/04/26 15:27:18;;;;;;;1.70;1.60;;;15.80;99.90;;;;;;5061979;28;20500;-81
2022/04/26 15:29:47;;;;;;;1.40;1.20;;;15.80;99.90;;;;;;5065283;28;20477;-81
2022/04/26 15:32:16;;;;;;;1.67;1.30;;;15.90;99.90;;;;;;5069188;28;20490;-82
2022/04/26 15:34:44;;;;;;;1.63;1.53;;;16.00;99.90;;;;;;5070398;28;20459;-81
2022/04/26 15:37:12;;;;;;;1.53;1.40;;;16.00;99.90;;;;;;5063152;28;20966;-81
2022/04/26 15:39:42;;;;;;;1.67;1.57;;;16.00;99.90;;;;;;5062849;28;20475;-82
2022/04/26 15:42:12;;;;;;;1.90;1.80;;;15.90;99.90;;;;;;5060149;28;20958;-81
2022/04/26 15:44:40;;;;;;;2.13;1.53;;;15.90;99.90;;;;;;5063539;28;20468;-81
2022/04/26 15:47:08;;;;;;;3.47;2.10;;;15.90;99.90;;;;;;5060592;28;21310;-81
2022/04/26 15:49:36;;;;;;;2.70;1.70;;;15.90;99.90;;;;;;5065150;28;20481;-82
2022/04/26 15:52:07;;;;;;;1.93;1.80;;;15.80;99.90;;;;;;5061019;28;20485;-81
2022/04/26 15:54:35;;;;;;;2.10;1.90;;;15.70;99.90;;;;;;5063442;28;20453;-81
2022/04/26 15:57:05;;;;;;;1.87;1.67;;;15.70;99.90;;;;;;5062224;28;20446;-82
2022/04/26 15:59:35;;;;;;;2.37;2.17;;;15.60;99.90;;;;;;5056556;28;20479;-82
2022/04/26 16:02:04;;;;;;;2.03;1.83;;;15.60;99.90;;;;;;5062329;28;20457;-83
2022/04/26 16:04:32;;;;;;;2.43;2.00;;;15.60;99.90;;;;;;5060156;28;20435;-82
2022/04/26 16:07:01;;;;;;;2.20;2.00;;;15.50;99.90;;;;;;5057588;28;20893;-84
2022/04/26 16:20:34;;;;;;;1.70;1.60;;;15.30;99.90;;;;;;5065956;28;20971;-79
2022/04/26 16:23:05;;;;;;;1.17;0.90;;;15.30;99.90;;;;;;5065955;28;20464;-78
2022/04/26 16:25:33;;;;;;;1.30;1.10;;;15.30;99.90;;;;;;5097962;28;20926;-78
2022/04/26 16:28:02;;;;;;;1.07;1.00;;;15.40;99.90;;;;;;5073099;28;21014;-78
2022/04/26 16:30:33;;;;;;;1.20;1.03;;;15.40;99.90;;;;;;5066442;28;20450;-78
2022/04/26 16:33:04;;;;;;;1.10;1.00;;;15.40;99.90;;;;;;5057003;28;20547;-78
2022/04/26 16:35:34;;;;;;;1.17;1.10;;;15.30;99.90;;;;;;5065392;28;20462;-77
2022/04/26 16:38:02;;;;;;;1.30;1.20;;;15.40;99.90;;;;;;5065948;28;20461;-78
2022/04/26 16:40:32;;;;;;;2.13;0.97;;;15.30;99.90;;;;;;5069786;28;21078;-77
2022/04/26 16:43:02;;;;;;;1.23;1.07;;;15.30;99.90;;;;;;5083019;28;20445;-78
2022/04/26 16:45:32;;;;;;;1.37;1.27;;;15.30;99.90;;;;;;5058471;28;20449;-77
2022/04/26 16:48:00;;;;;;;1.23;1.13;;;15.30;99.90;;;;;;5069920;28;20965;-78
2022/04/26 16:50:29;;;;;;;1.60;1.13;;;15.30;99.90;;;;;;5068237;28;20465;-78
2022/04/26 16:53:00;;;;;;;1.20;1.10;;;15.20;99.90;;;;;;5072869;28;21025;-78
2022/04/26 16:55:29;;;;;;;1.43;1.33;;;15.20;99.90;;;;;;5068579;28;20465;-78
2022/04/26 16:57:58;;;;;;;1.30;1.20;;;15.20;99.90;;;;;;5065975;28;20447;-76
2022/04/26 17:00:26;;;;;;;1.83;1.47;;;15.20;99.90;;;;;;5062840;28;20459;-79
2022/04/26 17:02:56;;;;;;;1.60;1.50;;;15.10;99.90;;;;;;5060271;28;20488;-77
2022/04/26 17:05:26;;;;;;;1.83;1.50;;;15.20;99.90;;;;;;5062908;28;20461;-78
2022/04/26 17:07:56;;;;;;;2.37;2.17;;;15.10;99.90;;;;;;5063329;28;20441;-77
2022/04/26 17:10:25;;;;;;;1.40;1.30;;;15.10;99.90;;;;;;5059383;28;20828;-75
2022/04/26 17:12:53;;;;;;;1.80;1.40;;;15.10;99.90;;;;;;5063846;28;21286;-77
2022/04/26 17:15:22;;;;;;;1.50;1.40;;;15.10;99.90;;;;;;5061648;28;20459;-77
2022/04/26 17:17:50;;;;;;;1.80;1.70;;;15.10;99.90;;;;;;5062787;28;20479;-77
2022/04/26 17:20:27;;;;;;;1.73;1.50;;;15.10;99.90;;;;;;5060806;28;20646;-78
2022/04/26 17:22:56;;;;;;;1.50;1.40;;;15.00;99.90;;;;;;5055715;28;20506;-78
2022/04/26 17:25:24;;;;;;;1.27;1.17;;;15.10;99.90;;;;;;5061513;28;20817;-77
2022/04/26 17:28:12;;;;;;;1.37;1.27;;;15.10;99.90;;;;;;5060908;28;20461;-77